createdAt,value
2019-01-29T00:01:57.089Z,6.28
2019-01-29T00:04:26.487Z,6.31
2019-01-29T00:06:56.207Z,6.31
2019-01-29T00:09:25.613Z,6.28
2019-01-29T00:11:54.977Z,6.30
2019-01-29T00:14:24.356Z,6.33
2019-01-29T00:16:53.722Z,6.35
2019-01-29T00:19:23.100Z,6.38
2019-01-29T00:21:52.769Z,6.40
2019-01-29T00:24:22.148Z,6.45
2019-01-29T00:26:51.525Z,6.48
2019-01-29T00:29:20.909Z,6.51
2019-01-29T00:31:50.278Z,6.52
2019-01-29T00:34:19.659Z,6.54
2019-01-29T00:36:49.027Z,6.57
2019-01-29T00:39:18.651Z,6.59
2019-01-29T00:41:48.031Z,6.60
2019-01-29T00:44:17.404Z,6.60
2019-01-29T00:46:46.788Z,6.63
2019-01-29T00:49:16.182Z,6.65
2019-01-29T00:54:14.656Z,6.68
2019-01-29T00:56:44.022Z,6.68
2019-01-29T00:59:13.987Z,6.69
2019-01-29T01:01:44.005Z,6.70
2019-01-29T01:04:14.115Z,6.70
2019-01-29T01:06:44.128Z,6.70
2019-01-29T01:09:14.484Z,6.67
2019-01-29T01:11:44.420Z,6.63
2019-01-29T01:14:14.367Z,6.61
2019-01-29T01:16:44.472Z,6.58
2019-01-29T01:19:14.358Z,6.55
2019-01-29T01:21:44.373Z,6.53
2019-01-29T01:24:14.352Z,6.48
2019-01-29T01:26:44.381Z,6.41
2019-01-29T01:29:14.474Z,6.35
2019-01-29T01:31:44.757Z,6.27
2019-01-29T01:34:14.551Z,6.22
2019-01-29T01:36:44.557Z,6.17
2019-01-29T01:39:14.708Z,6.13
2019-01-29T01:54:46.506Z,6.03
2019-01-29T02:14:57.495Z,6.03
2019-01-29T02:17:26.853Z,6.10
2019-01-29T02:19:56.486Z,6.19
2019-01-29T02:22:26.093Z,6.24
2019-01-29T02:24:55.475Z,6.30
2019-01-29T02:27:24.834Z,6.36
2019-01-29T02:29:54.214Z,6.39
2019-01-29T02:32:23.828Z,6.44
2019-01-29T02:34:53.283Z,6.48
2019-01-29T02:59:42.644Z,6.50
2019-01-29T03:02:12.024Z,6.52
2019-01-29T03:04:41.405Z,6.57
2019-01-29T03:07:11.123Z,6.64
2019-01-29T03:09:40.505Z,6.70
2019-01-29T03:12:09.929Z,6.74
2019-01-29T03:14:39.556Z,6.75
2019-01-29T03:17:09.248Z,6.75
2019-01-29T03:19:38.601Z,6.78
2019-01-29T03:22:07.968Z,6.79
2019-01-29T03:24:37.355Z,6.80
2019-01-29T03:27:06.792Z,6.81
2019-01-29T03:29:36.155Z,6.81
2019-01-29T03:32:05.609Z,6.82
2019-01-29T03:34:34.975Z,6.81
2019-01-29T03:37:04.439Z,6.82
2019-01-29T03:39:34.076Z,6.83
2019-01-29T03:42:03.451Z,6.82
2019-01-29T03:44:32.821Z,6.82
2019-01-29T03:47:02.200Z,6.80
2019-01-29T03:49:31.560Z,6.80
2019-01-29T03:52:00.941Z,6.77
2019-01-29T03:54:30.330Z,6.79
2019-01-29T03:56:59.705Z,6.79
2019-01-29T03:59:29.078Z,6.79
2019-01-29T04:01:58.544Z,6.80
2019-01-29T04:04:27.894Z,6.80
2019-01-29T04:06:57.302Z,6.78
2019-01-29T04:09:26.931Z,6.78
2019-01-29T04:11:56.308Z,6.77
2019-01-29T04:14:25.699Z,6.76
2019-01-29T04:16:55.055Z,6.76
2019-01-29T04:19:27.040Z,6.75
2019-01-29T04:21:56.450Z,6.74
2019-01-29T04:24:25.805Z,6.75
2019-01-29T04:26:55.194Z,6.74
2019-01-29T04:29:24.561Z,6.74
2019-01-29T04:31:53.923Z,6.74
2019-01-29T04:34:23.297Z,6.74
2019-01-29T04:36:52.675Z,6.75
2019-01-29T04:39:22.394Z,6.75
2019-01-29T04:41:51.775Z,6.74
2019-01-29T04:44:21.165Z,6.72
2019-01-29T04:46:50.569Z,6.70
2019-01-29T04:49:19.924Z,6.67
2019-01-29T04:51:50.047Z,6.64
2019-01-29T04:54:19.794Z,6.61
2019-01-29T04:56:49.766Z,6.58
2019-01-29T04:59:19.826Z,6.55
2019-01-29T05:01:49.818Z,6.52
2019-01-29T05:04:19.932Z,6.49
2019-01-29T05:06:49.956Z,6.44
2019-01-29T05:09:20.073Z,6.40
2019-01-29T05:11:50.402Z,6.38
2019-01-29T05:14:20.426Z,6.32
2019-01-29T05:16:50.460Z,6.27
2019-01-29T05:19:20.147Z,6.22
2019-01-29T05:21:50.203Z,6.17
2019-01-29T05:24:20.233Z,6.13
2019-01-29T05:26:50.458Z,6.08
2019-01-29T05:29:20.311Z,6.04
2019-01-29T05:31:50.396Z,6.00
2019-01-29T05:34:20.352Z,5.94
2019-01-29T05:36:50.448Z,5.90
2019-01-29T05:39:20.564Z,5.87
2019-01-29T05:41:50.501Z,5.85
2019-01-29T05:44:20.922Z,5.81
2019-01-29T05:46:50.616Z,5.81
2019-01-29T05:49:20.647Z,5.83
2019-01-29T05:51:50.740Z,5.84
2019-01-29T05:54:20.759Z,5.89
2019-01-29T05:56:50.994Z,5.91
2019-01-29T05:59:20.815Z,5.94
2019-01-29T06:01:50.876Z,5.99
2019-01-29T06:04:21.244Z,6.02
2019-01-29T06:06:50.983Z,6.07
2019-01-29T06:09:21.334Z,6.13
2019-01-29T06:11:51.246Z,6.13
2019-01-29T06:15:03.088Z,6.12
2019-01-29T06:17:32.470Z,6.08
2019-01-29T06:20:01.862Z,6.08
2019-01-29T06:22:31.239Z,6.11
2019-01-29T06:25:00.677Z,6.12
2019-01-29T06:27:30.052Z,6.12
2019-01-29T06:30:00.383Z,6.12
2019-01-29T06:32:31.564Z,6.11
2019-01-29T06:35:00.912Z,6.08
2019-01-29T06:37:30.573Z,6.07
2019-01-29T06:39:59.932Z,6.04
2019-01-29T06:42:29.383Z,6.03
2019-01-29T06:44:58.743Z,6.04
2019-01-29T06:47:28.143Z,6.05
2019-01-29T06:49:57.552Z,6.07
2019-01-29T06:52:27.294Z,6.07
2019-01-29T06:54:56.674Z,6.09
2019-01-29T06:57:26.081Z,6.12
2019-01-29T06:59:55.460Z,6.18
2019-01-29T07:02:25.113Z,6.21
2019-01-29T07:04:55.056Z,6.26
2019-01-29T07:07:24.451Z,6.29
2019-01-29T07:09:54.083Z,6.29
2019-01-29T07:12:23.483Z,6.32
2019-01-29T07:14:52.847Z,6.35
2019-01-29T07:17:23.867Z,6.37
2019-01-29T07:19:53.317Z,6.40
2019-01-29T07:22:22.697Z,6.39
2019-01-29T07:24:52.090Z,6.41
2019-01-29T07:27:21.457Z,6.42
2019-01-29T07:29:50.841Z,6.44
2019-01-29T07:32:20.314Z,6.46
2019-01-29T07:34:49.698Z,6.50
2019-01-29T07:37:22.149Z,6.54
2019-01-29T07:39:56.211Z,6.57
2019-01-29T07:42:25.674Z,6.59
2019-01-29T07:44:55.019Z,6.63
2019-01-29T07:47:24.410Z,6.66
2019-01-29T07:49:53.796Z,6.70
2019-01-29T07:52:23.174Z,6.70
2019-01-29T07:54:52.535Z,6.68
2019-01-29T07:57:21.969Z,6.73
2019-01-29T07:59:51.310Z,6.74
2019-01-29T08:02:20.688Z,6.77
2019-01-29T08:04:50.060Z,6.79
2019-01-29T08:07:19.424Z,6.82
2019-01-29T08:09:48.811Z,6.92
2019-01-29T08:12:18.193Z,7.11
2019-01-29T08:14:47.579Z,7.37
2019-01-29T08:17:16.945Z,7.71
2019-01-29T08:19:46.317Z,8.07
2019-01-29T08:22:15.690Z,8.43
2019-01-29T08:24:51.811Z,8.83
2019-01-29T08:27:16.194Z,9.22
2019-01-29T08:29:45.581Z,9.50
2019-01-29T08:32:14.959Z,9.57
2019-01-29T08:34:44.351Z,9.54
2019-01-29T08:37:13.768Z,9.48
2019-01-29T08:39:44.761Z,9.49
2019-01-29T08:42:14.134Z,9.60
2019-01-29T08:44:43.509Z,9.72
2019-01-29T08:47:12.947Z,9.95
2019-01-29T08:49:42.338Z,10.27
2019-01-29T08:52:12.034Z,10.61
2019-01-29T08:54:41.452Z,10.96
2019-01-29T08:57:11.144Z,11.28
2019-01-29T08:59:40.584Z,11.58
2019-01-29T09:02:09.964Z,11.82
2019-01-29T09:04:39.782Z,12.00
2019-01-29T09:07:09.222Z,12.10
2019-01-29T09:09:38.576Z,12.21
2019-01-29T09:12:07.941Z,12.27
2019-01-29T09:14:37.315Z,12.27
2019-01-29T09:17:06.699Z,12.19
2019-01-29T09:19:36.090Z,12.12
2019-01-29T09:22:05.852Z,12.10
2019-01-29T09:24:35.238Z,12.02
2019-01-29T09:27:04.680Z,11.89
2019-01-29T09:29:34.057Z,11.74
2019-01-29T09:32:03.449Z,11.61
2019-01-29T09:34:33.142Z,11.55
2019-01-29T09:37:02.767Z,11.56
2019-01-29T09:39:32.178Z,11.61
2019-01-29T09:42:01.530Z,11.75
2019-01-29T09:44:30.911Z,11.86
2019-01-29T09:47:00.355Z,11.95
2019-01-29T09:49:29.737Z,11.97
2019-01-29T09:51:59.101Z,11.95
2019-01-29T09:54:28.493Z,11.88
2019-01-29T09:56:57.866Z,11.73
2019-01-29T09:59:27.270Z,11.59
2019-01-29T10:01:56.672Z,11.54
2019-01-29T10:04:26.297Z,11.50
2019-01-29T10:06:55.667Z,11.52
2019-01-29T10:09:25.039Z,11.62
2019-01-29T10:11:54.401Z,11.77
2019-01-29T10:14:24.061Z,11.91
2019-01-29T10:16:53.423Z,11.98
2019-01-29T10:19:22.796Z,11.94
2019-01-29T10:21:52.163Z,11.92
2019-01-29T10:24:21.548Z,11.91
2019-01-29T10:26:50.930Z,11.86
2019-01-29T10:29:20.286Z,11.83
2019-01-29T10:31:49.959Z,11.85
2019-01-29T10:34:20.025Z,11.95
2019-01-29T10:36:50.031Z,12.15
2019-01-29T10:39:20.354Z,12.32
2019-01-29T10:41:50.302Z,12.48
2019-01-29T10:44:20.277Z,12.71
2019-01-29T10:46:50.332Z,12.91
2019-01-29T10:49:20.426Z,13.12
2019-01-29T10:51:50.421Z,13.31
2019-01-29T10:54:21.081Z,13.43
2019-01-29T10:56:51.231Z,13.42
2019-01-29T10:59:20.944Z,13.39
2019-01-29T11:01:51.004Z,13.37
2019-01-29T11:04:20.989Z,13.21
2019-01-29T11:06:51.086Z,13.14
2019-01-29T11:09:25.590Z,13.10
2019-01-29T11:11:52.163Z,13.07
2019-01-29T11:14:21.553Z,13.04
2019-01-29T11:16:51.333Z,12.97
2019-01-29T11:19:21.860Z,12.86
2019-01-29T11:21:51.679Z,12.65
2019-01-29T11:24:21.736Z,12.38
2019-01-29T11:26:51.853Z,12.16
2019-01-29T11:29:22.192Z,12.00
2019-01-29T11:31:52.012Z,11.85
2019-01-29T11:34:22.058Z,11.77
2019-01-29T11:36:52.098Z,11.72
2019-01-29T11:39:22.181Z,11.70
2019-01-29T11:41:52.678Z,11.71
2019-01-29T11:44:22.688Z,11.72
2019-01-29T11:46:52.724Z,11.69
2019-01-29T11:49:22.084Z,11.65
2019-01-29T11:51:51.519Z,11.57
2019-01-29T11:54:20.943Z,11.47
2019-01-29T11:56:50.339Z,11.30
2019-01-29T11:59:20.069Z,11.18
2019-01-29T12:01:49.716Z,11.06
2019-01-29T12:04:19.075Z,10.92
2019-01-29T12:06:48.464Z,10.81
2019-01-29T12:09:17.837Z,10.71
2019-01-29T12:11:47.204Z,10.63
2019-01-29T12:14:16.574Z,10.48
2019-01-29T12:16:47.135Z,10.37
2019-01-29T12:19:16.503Z,10.24
2019-01-29T12:21:45.965Z,10.12
2019-01-29T12:24:15.341Z,10.02
2019-01-29T12:26:44.748Z,9.93
2019-01-29T12:29:14.142Z,9.86
2019-01-29T12:31:44.023Z,9.82
2019-01-29T12:34:13.382Z,9.74
2019-01-29T12:36:42.774Z,9.66
2019-01-29T12:39:12.320Z,9.60
2019-01-29T12:41:41.924Z,9.55
2019-01-29T12:44:11.309Z,9.46
2019-01-29T12:46:40.666Z,9.38
2019-01-29T12:49:10.067Z,9.33
2019-01-29T12:51:40.731Z,9.30
2019-01-29T12:54:10.248Z,9.29
2019-01-29T12:56:39.627Z,9.26
2019-01-29T12:59:09.052Z,9.22
2019-01-29T13:01:38.510Z,9.18
2019-01-29T13:04:07.907Z,9.08
2019-01-29T13:06:37.385Z,9.03
2019-01-29T13:09:09.433Z,8.98
2019-01-29T13:11:40.440Z,8.94
2019-01-29T13:14:09.825Z,8.93
2019-01-29T13:16:39.222Z,8.93
2019-01-29T13:19:10.238Z,8.89
2019-01-29T13:21:39.963Z,8.83
2019-01-29T13:24:09.575Z,8.81
2019-01-29T13:26:38.941Z,8.76
2019-01-29T13:29:08.377Z,8.76
2019-01-29T13:31:37.989Z,8.76
2019-01-29T13:34:07.698Z,8.78
2019-01-29T13:36:37.326Z,8.76
2019-01-29T13:39:08.597Z,8.72
2019-01-29T13:41:38.054Z,8.66
2019-01-29T13:44:07.409Z,8.61
2019-01-29T13:46:36.794Z,8.61
2019-01-29T13:49:06.450Z,8.61
2019-01-29T13:51:36.114Z,8.61
2019-01-29T13:54:06.312Z,8.63
2019-01-29T13:56:38.878Z,8.64
2019-01-29T13:59:07.408Z,8.62
2019-01-29T14:01:37.413Z,8.61
2019-01-29T14:04:07.999Z,8.59
2019-01-29T14:06:38.027Z,8.56
2019-01-29T14:09:08.785Z,8.54
2019-01-29T14:11:38.319Z,8.51
2019-01-29T14:14:08.580Z,8.54
2019-01-29T14:16:38.890Z,8.56
2019-01-29T14:19:09.267Z,8.57
2019-01-29T14:21:39.164Z,8.55
2019-01-29T14:24:09.250Z,8.52
2019-01-29T14:26:47.344Z,8.49
2019-01-29T14:29:10.466Z,8.44
2019-01-29T14:31:40.715Z,8.38
2019-01-29T14:34:10.809Z,8.34
2019-01-29T14:36:40.238Z,8.32
2019-01-29T14:39:23.430Z,8.29
2019-01-29T14:41:52.807Z,8.21
2019-01-29T14:44:22.166Z,8.17
2019-01-29T14:46:51.536Z,8.13
2019-01-29T14:49:20.908Z,8.08
2019-01-29T14:51:50.305Z,8.01
2019-01-29T14:54:19.647Z,7.97
2019-01-29T14:56:56.708Z,7.91
2019-01-29T14:59:20.119Z,7.92
2019-01-29T15:01:49.483Z,7.89
2019-01-29T15:04:18.851Z,7.91
2019-01-29T15:06:48.462Z,7.89
2019-01-29T15:09:17.856Z,7.91
2019-01-29T15:11:47.236Z,7.93
2019-01-29T15:14:16.596Z,7.95
2019-01-29T15:16:47.910Z,7.95
2019-01-29T15:19:17.275Z,7.93
2019-01-29T15:21:48.698Z,7.89
2019-01-29T15:24:17.800Z,7.85
2019-01-29T15:26:47.199Z,7.79
2019-01-29T15:29:16.564Z,7.78
2019-01-29T15:31:46.433Z,7.73
2019-01-29T15:34:16.580Z,7.67
2019-01-29T15:36:46.814Z,7.62
2019-01-29T15:39:16.194Z,7.57
2019-01-29T15:41:45.595Z,7.52
2019-01-29T15:44:14.970Z,7.48
2019-01-29T15:46:44.564Z,7.43
2019-01-29T15:49:14.398Z,7.37
2019-01-29T15:51:43.803Z,7.35
2019-01-29T15:54:13.180Z,7.28
2019-01-29T15:56:43.246Z,7.23
2019-01-29T15:59:12.661Z,7.19
2019-01-29T16:01:42.083Z,7.11
2019-01-29T16:04:11.491Z,7.07
2019-01-29T16:06:41.284Z,7.02
2019-01-29T16:09:11.034Z,6.96
2019-01-29T16:11:40.466Z,6.91
2019-01-29T16:14:10.259Z,6.86
2019-01-29T16:16:39.637Z,6.82
2019-01-29T16:19:09.153Z,6.75
2019-01-29T16:21:38.523Z,6.68
2019-01-29T16:24:07.923Z,6.61
2019-01-29T16:26:37.274Z,6.54
2019-01-29T16:29:06.752Z,6.46
2019-01-29T16:31:36.117Z,6.39
2019-01-29T16:34:06.015Z,6.33
2019-01-29T16:36:35.714Z,6.29
2019-01-29T16:39:08.474Z,6.25
2019-01-29T16:41:37.906Z,6.23
2019-01-29T16:44:07.284Z,6.20
2019-01-29T16:46:36.739Z,6.22
2019-01-29T16:49:06.472Z,6.22
2019-01-29T16:51:42.283Z,6.25
2019-01-29T16:54:07.007Z,6.25
2019-01-29T16:56:36.619Z,6.28
2019-01-29T16:59:06.384Z,6.31
2019-01-29T17:01:35.761Z,6.32
2019-01-29T17:04:05.223Z,6.35
2019-01-29T17:06:34.599Z,6.38
2019-01-29T17:09:05.583Z,6.40
2019-01-29T17:11:34.947Z,6.42
2019-01-29T17:14:04.453Z,6.44
2019-01-29T17:16:33.827Z,6.44
2019-01-29T17:19:03.208Z,6.44
2019-01-29T17:21:32.578Z,6.41
2019-01-29T17:24:01.970Z,6.38
2019-01-29T17:26:31.368Z,6.31
2019-01-29T17:29:00.742Z,6.27
2019-01-29T17:31:30.092Z,6.20
2019-01-29T17:34:00.230Z,6.12
2019-01-29T17:36:30.731Z,6.06
2019-01-29T17:39:00.937Z,5.95
2019-01-29T17:41:31.043Z,5.92
2019-01-29T17:44:01.634Z,5.85
2019-01-29T17:46:31.417Z,5.80
2019-01-29T17:49:01.555Z,5.76
2019-01-29T17:51:32.035Z,5.71
2019-01-29T17:54:02.550Z,5.66
2019-01-29T17:56:32.719Z,5.62
2019-01-29T17:59:03.123Z,5.57
2019-01-29T18:01:33.218Z,5.52
2019-01-29T18:04:03.577Z,5.50
2019-01-29T18:06:33.695Z,5.45
2019-01-29T18:09:07.349Z,5.42
2019-01-29T18:11:36.761Z,5.36
2019-01-29T18:14:06.222Z,5.30
2019-01-29T18:16:35.603Z,5.29
2019-01-29T18:19:05.044Z,5.24
2019-01-29T18:21:34.473Z,5.21
2019-01-29T18:24:05.356Z,5.18
2019-01-29T18:26:35.706Z,5.17
2019-01-29T18:29:07.764Z,5.16
2019-01-29T18:31:37.369Z,5.15
2019-01-29T18:34:06.763Z,5.13
2019-01-29T18:36:36.985Z,5.14
2019-01-29T18:39:08.362Z,5.15
2019-01-29T18:41:38.850Z,5.16
2019-01-29T18:44:08.520Z,5.15
2019-01-29T18:46:38.634Z,5.18
2019-01-29T18:49:08.012Z,5.20
2019-01-29T18:51:37.368Z,5.22
2019-01-29T18:54:06.823Z,5.20
2019-01-29T18:56:36.201Z,5.22
2019-01-29T18:59:05.815Z,5.23
2019-01-29T19:01:35.189Z,5.23
2019-01-29T19:04:04.710Z,5.22
2019-01-29T19:06:34.086Z,5.24
2019-01-29T19:09:05.154Z,5.22
2019-01-29T19:11:34.597Z,5.21
2019-01-29T19:14:04.298Z,5.20
2019-01-29T19:16:33.714Z,5.21
2019-01-29T19:19:03.157Z,5.19
2019-01-29T19:21:32.584Z,5.20
2019-01-29T19:24:02.259Z,5.18
2019-01-29T19:26:31.925Z,5.18
2019-01-29T19:29:01.548Z,5.17
2019-01-29T19:31:31.284Z,5.16
2019-01-29T19:34:00.625Z,5.13
2019-01-29T19:36:30.353Z,5.12
2019-01-29T19:38:59.721Z,5.12
2019-01-29T19:41:29.406Z,5.10
2019-01-29T19:43:58.770Z,5.10
2019-01-29T19:46:28.145Z,5.09
2019-01-29T19:48:57.522Z,5.09
2019-01-29T19:51:27.215Z,5.07
2019-01-29T19:53:56.816Z,5.08
2019-01-29T19:56:26.499Z,5.08
2019-01-29T19:58:55.877Z,5.07
2019-01-29T20:01:25.280Z,5.06
2019-01-29T20:03:54.638Z,5.07
2019-01-29T20:06:24.206Z,5.08
2019-01-29T20:08:54.094Z,5.06
2019-01-29T20:11:23.510Z,5.07
2019-01-29T20:13:52.857Z,5.07
2019-01-29T20:16:23.114Z,5.05
2019-01-29T20:18:53.228Z,5.06
2019-01-29T20:21:23.821Z,5.05
2019-01-29T20:23:55.115Z,5.05
2019-01-29T20:26:24.589Z,5.04
2019-01-29T20:28:54.449Z,5.03
2019-01-29T20:31:24.335Z,5.04
2019-01-29T20:33:54.475Z,5.04
2019-01-29T20:36:24.707Z,5.04
2019-01-29T20:38:54.498Z,5.03
2019-01-29T20:41:24.821Z,5.02
2019-01-29T20:43:54.877Z,5.03
2019-01-29T20:46:25.098Z,5.02
2019-01-29T20:48:55.050Z,5.01
2019-01-29T20:51:25.087Z,5.00
2019-01-29T20:53:55.243Z,5.00
2019-01-29T20:56:25.225Z,5.01
2019-01-29T20:58:55.406Z,5.01
2019-01-29T21:01:25.921Z,5.00
2019-01-29T21:03:55.821Z,5.00
2019-01-29T21:06:26.180Z,5.01
2019-01-29T21:08:56.012Z,5.01
2019-01-29T21:11:34.713Z,5.01
2019-01-29T21:14:04.152Z,5.03
2019-01-29T21:16:33.514Z,5.03
2019-01-29T21:19:02.956Z,5.02
2019-01-29T21:21:32.344Z,5.02
2019-01-29T21:24:01.704Z,5.02
2019-01-29T21:26:31.080Z,5.00
2019-01-29T21:29:03.294Z,5.01
2019-01-29T21:31:31.965Z,5.00
2019-01-29T21:34:01.615Z,5.02
2019-01-29T21:36:30.966Z,5.02
2019-01-29T21:39:00.331Z,5.02
2019-01-29T21:41:29.707Z,5.03
2019-01-29T21:43:59.082Z,5.04
2019-01-29T21:46:28.448Z,5.05
2019-01-29T21:48:57.805Z,5.02
2019-01-29T21:51:27.364Z,5.02
2019-01-29T21:53:57.315Z,5.00
2019-01-29T21:56:27.341Z,5.00
2019-01-29T21:58:57.388Z,4.99
2019-01-29T22:01:27.777Z,4.98
2019-01-29T22:03:57.699Z,4.96
2019-01-29T22:06:27.508Z,4.95
2019-01-29T22:08:57.537Z,4.93
2019-01-29T22:11:27.692Z,4.91
2019-01-29T22:13:57.793Z,4.89
2019-01-29T22:16:27.766Z,4.88
2019-01-29T22:18:58.158Z,4.88
2019-01-29T22:21:27.970Z,4.87
2019-01-29T22:23:57.886Z,4.87
2019-01-29T22:26:28.040Z,4.87
2019-01-29T22:28:58.078Z,4.87
2019-01-29T22:31:28.128Z,4.86
2019-01-29T22:33:58.156Z,4.88
2019-01-29T22:36:28.416Z,4.88
2019-01-29T22:38:59.025Z,4.88
2019-01-29T22:41:28.618Z,4.89
2019-01-29T22:43:58.873Z,4.91
2019-01-29T22:46:28.928Z,4.92
2019-01-29T22:48:58.875Z,4.93
2019-01-29T22:51:28.695Z,4.93
2019-01-29T22:53:59.573Z,4.95
2019-01-29T22:56:29.305Z,4.96
2019-01-29T22:59:33.388Z,4.93
2019-01-29T23:02:37.948Z,4.91
2019-01-29T23:05:14.858Z,4.86
2019-01-29T23:11:35.141Z,4.85
2019-01-29T23:14:06.006Z,4.77
2019-01-29T23:20:48.701Z,4.71
2019-01-29T23:23:54.316Z,4.69
2019-01-29T23:26:29.659Z,4.65
2019-01-29T23:29:18.898Z,4.69
2019-01-29T23:31:53.186Z,4.70
2019-01-29T23:35:24.334Z,4.73
2019-01-29T23:38:49.270Z,4.70
2019-01-29T23:44:07.557Z,4.66
2019-01-29T23:50:28.016Z,4.64
2019-01-29T23:56:24.242Z,4.63
2019-01-29T23:58:53.861Z,4.69
